Terminal Aerodrome Forecast
Issued by NWS

Home | Current Version | Previous Version | Text Only | Print | Product List | Glossary On
Versions: 1 2 3 4 5 6 7 8 9 10 11 12 13 14 15 16 17
000
FTUS46 KMFR 260520
TAFRBG
TAF
KRBG 260520Z 2606/2706 VRB03KT P6SM SKC
     FM261100 00000KT P6SM OVC012
     FM261300 00000KT P6SM OVC007
     FM261600 00000KT P6SM OVC012
     FM262000 VRB03KT P6SM SKC
     FM262200 36010KT P6SM SKC
     FM270300 VRB03KT P6SM SKC=

USA.gov is the U.S. government's official web portal to all federal, state and local government web resources and services.